Terminal Aerodrome Forecast
Issued by NWS Pittsburgh, PA

Home | Current Version | Previous Version | Text Only | Print | Product List | Glossary On
Versions: 1 2 3 4 5 6 7 8 9 10 11 12 13 14 15 16 17 18 19 20 21 22 23 24 25 26 27 28 29 30 31 32 33
534
FTUS41 KPBZ 291452 AAB
TAFPIT
TAF AMD
KPIT 291452Z 2915/3018 24005KT 4SM BR OVC004
     FM291800 29005KT P6SM BKN015
     FM300400 34004KT 2SM BR OVC007=

USA.gov is the U.S. government's official web portal to all federal, state and local government web resources and services.